sensor_id;sensor_type;location;lat;lon;timestamp;P1;durP1;ratioP1;P2;durP2;ratioP2
59702;SDS011;45570;48.782;8.332;2022-08-21T06:01:34;5.00;;;3.10;;
59702;SDS011;45570;48.782;8.332;2022-08-21T06:04:03;5.50;;;3.20;;
59702;SDS011;45570;48.782;8.332;2022-08-21T06:06:33;6.70;;;3.85;;
59702;SDS011;45570;48.782;8.332;2022-08-21T06:09:02;8.13;;;3.80;;
59702;SDS011;45570;48.782;8.332;2022-08-21T06:11:32;10.25;;;8.98;;
59702;SDS011;45570;48.782;8.332;2022-08-21T06:14:03;60.67;;;55.00;;
59702;SDS011;45570;48.782;8.332;2022-08-21T06:16:33;5.55;;;3.67;;
59702;SDS011;45570;48.782;8.332;2022-08-21T06:19:01;4.80;;;3.80;;
59702;SDS011;45570;48.782;8.332;2022-08-21T06:21:30;5.75;;;3.50;;
59702;SDS011;45570;48.782;8.332;2022-08-21T06:23:59;11.40;;;3.67;;
59702;SDS011;45570;48.782;8.332;2022-08-21T06:26:28;8.95;;;4.93;;
59702;SDS011;45570;48.782;8.332;2022-08-21T06:28:57;7.03;;;3.22;;
59702;SDS011;45570;48.782;8.332;2022-08-21T06:31:28;6.10;;;3.00;;
59702;SDS011;45570;48.782;8.332;2022-08-21T06:33:56;4.88;;;3.42;;
59702;SDS011;45570;48.782;8.332;2022-08-21T06:36:25;6.43;;;3.25;;
59702;SDS011;45570;48.782;8.332;2022-08-21T06:38:54;6.68;;;3.47;;
59702;SDS011;45570;48.782;8.332;2022-08-21T06:41:23;7.95;;;3.47;;
59702;SDS011;45570;48.782;8.332;2022-08-21T06:43:53;7.93;;;3.30;;
59702;SDS011;45570;48.782;8.332;2022-08-21T06:46:22;7.53;;;2.95;;
59702;SDS011;45570;48.782;8.332;2022-08-21T06:48:54;6.53;;;3.45;;
59702;SDS011;45570;48.782;8.332;2022-08-21T06:51:24;6.38;;;3.47;;
59702;SDS011;45570;48.782;8.332;2022-08-21T06:53:53;7.68;;;3.47;;
59702;SDS011;45570;48.782;8.332;2022-08-21T06:56:24;3.15;;;2.78;;
59702;SDS011;45570;48.782;8.332;2022-08-21T06:58:53;7.88;;;3.03;;
59702;SDS011;45570;48.782;8.332;2022-08-21T07:01:23;3.25;;;2.80;;
59702;SDS011;45570;48.782;8.332;2022-08-21T07:03:55;4.78;;;3.10;;
59702;SDS011;45570;48.782;8.332;2022-08-21T07:06:23;7.22;;;3.42;;
59702;SDS011;45570;48.782;8.332;2022-08-21T07:08:54;4.22;;;2.67;;
59702;SDS011;45570;48.782;8.332;2022-08-21T07:11:24;3.20;;;2.78;;
59702;SDS011;45570;48.782;8.332;2022-08-21T07:13:53;5.78;;;2.95;;
59702;SDS011;45570;48.782;8.332;2022-08-21T07:16:23;216.82;;;80.45;;
59702;SDS011;45570;48.782;8.332;2022-08-21T07:18:52;6.85;;;3.15;;
59702;SDS011;45570;48.782;8.332;2022-08-21T07:21:22;4.32;;;2.63;;
59702;SDS011;45570;48.782;8.332;2022-08-21T07:23:51;20.27;;;4.45;;
59702;SDS011;45570;48.782;8.332;2022-08-21T07:26:21;3.90;;;2.92;;
59702;SDS011;45570;48.782;8.332;2022-08-21T07:28:51;3.83;;;2.60;;
59702;SDS011;45570;48.782;8.332;2022-08-21T07:31:21;23.25;;;5.28;;
59702;SDS011;45570;48.782;8.332;2022-08-21T07:33:52;126.95;;;10.68;;
59702;SDS011;45570;48.782;8.332;2022-08-21T07:36:22;5.93;;;2.78;;
59702;SDS011;45570;48.782;8.332;2022-08-21T07:38:51;4.82;;;2.58;;
59702;SDS011;45570;48.782;8.332;2022-08-21T07:41:21;4.13;;;2.47;;
59702;SDS011;45570;48.782;8.332;2022-08-21T07:43:51;4.15;;;2.78;;
59702;SDS011;45570;48.782;8.332;2022-08-21T07:46:20;4.00;;;2.33;;
59702;SDS011;45570;48.782;8.332;2022-08-21T07:48:49;5.38;;;2.75;;
59702;SDS011;45570;48.782;8.332;2022-08-21T07:51:20;8.73;;;2.80;;
59702;SDS011;45570;48.782;8.332;2022-08-21T07:53:54;4.95;;;2.95;;
59702;SDS011;45570;48.782;8.332;2022-08-21T07:56:24;5.13;;;2.90;;
59702;SDS011;45570;48.782;8.332;2022-08-21T07:58:53;6.32;;;2.83;;
59702;SDS011;45570;48.782;8.332;2022-08-21T08:01:24;5.13;;;2.78;;
59702;SDS011;45570;48.782;8.332;2022-08-21T08:03:53;5.45;;;2.90;;
59702;SDS011;45570;48.782;8.332;2022-08-21T08:06:24;2.90;;;2.60;;
59702;SDS011;45570;48.782;8.332;2022-08-21T08:08:53;6.18;;;2.80;;
59702;SDS011;45570;48.782;8.332;2022-08-21T08:11:21;5.38;;;2.70;;
59702;SDS011;45570;48.782;8.332;2022-08-21T08:13:51;4.25;;;2.50;;
59702;SDS011;45570;48.782;8.332;2022-08-21T08:16:20;56.10;;;8.43;;
59702;SDS011;45570;48.782;8.332;2022-08-21T08:18:49;5.03;;;2.50;;
59702;SDS011;45570;48.782;8.332;2022-08-21T08:21:18;4.50;;;2.60;;
59702;SDS011;45570;48.782;8.332;2022-08-21T08:23:49;4.90;;;2.53;;
59702;SDS011;45570;48.782;8.332;2022-08-21T08:26:18;4.78;;;2.70;;
59702;SDS011;45570;48.782;8.332;2022-08-21T08:28:46;3.35;;;2.63;;
59702;SDS011;45570;48.782;8.332;2022-08-21T08:31:15;5.07;;;2.80;;
59702;SDS011;45570;48.782;8.332;2022-08-21T08:33:44;7.85;;;3.65;;
59702;SDS011;45570;48.782;8.332;2022-08-21T08:36:13;5.43;;;2.33;;
59702;SDS011;45570;48.782;8.332;2022-08-21T08:38:45;4.75;;;2.25;;
59702;SDS011;45570;48.782;8.332;2022-08-21T08:41:17;5.82;;;2.30;;
59702;SDS011;45570;48.782;8.332;2022-08-21T08:43:57;6.10;;;2.25;;
59702;SDS011;45570;48.782;8.332;2022-08-21T08:46:30;3.08;;;2.50;;
59702;SDS011;45570;48.782;8.332;2022-08-21T08:49:06;2.75;;;2.10;;
59702;SDS011;45570;48.782;8.332;2022-08-21T08:51:43;4.43;;;2.50;;
59702;SDS011;45570;48.782;8.332;2022-08-21T08:54:21;2.58;;;2.13;;
59702;SDS011;45570;48.782;8.332;2022-08-21T08:56:59;8.48;;;2.40;;
59702;SDS011;45570;48.782;8.332;2022-08-21T08:59:32;3.28;;;2.25;;
59702;SDS011;45570;48.782;8.332;2022-08-21T09:02:09;4.18;;;2.60;;
59702;SDS011;45570;48.782;8.332;2022-08-21T09:04:40;4.43;;;2.67;;
59702;SDS011;45570;48.782;8.332;2022-08-21T09:07:12;5.47;;;2.38;;
59702;SDS011;45570;48.782;8.332;2022-08-21T09:09:51;3.20;;;2.08;;
59702;SDS011;45570;48.782;8.332;2022-08-21T09:12:33;4.15;;;2.60;;
59702;SDS011;45570;48.782;8.332;2022-08-21T09:15:11;3.92;;;2.40;;
59702;SDS011;45570;48.782;8.332;2022-08-21T09:20:51;5.35;;;3.10;;
59702;SDS011;45570;48.782;8.332;2022-08-21T09:23:32;2.53;;;2.17;;
59702;SDS011;45570;48.782;8.332;2022-08-21T09:26:12;5.45;;;2.67;;
59702;SDS011;45570;48.782;8.332;2022-08-21T09:28:44;3.83;;;2.30;;
59702;SDS011;45570;48.782;8.332;2022-08-21T09:31:16;6.72;;;2.83;;
59702;SDS011;45570;48.782;8.332;2022-08-21T09:33:56;3.53;;;2.35;;
59702;SDS011;45570;48.782;8.332;2022-08-21T09:36:29;6.20;;;3.08;;
59702;SDS011;45570;48.782;8.332;2022-08-21T09:39:03;4.43;;;3.25;;
59702;SDS011;45570;48.782;8.332;2022-08-21T09:41:34;3.42;;;2.63;;
59702;SDS011;45570;48.782;8.332;2022-08-21T09:44:05;8.07;;;3.22;;
59702;SDS011;45570;48.782;8.332;2022-08-21T09:46:35;4.65;;;2.15;;
59702;SDS011;45570;48.782;8.332;2022-08-21T09:49:04;6.45;;;2.85;;
59702;SDS011;45570;48.782;8.332;2022-08-21T09:51:49;4.22;;;2.35;;
59702;SDS011;45570;48.782;8.332;2022-08-21T09:54:20;3.15;;;2.13;;
59702;SDS011;45570;48.782;8.332;2022-08-21T09:56:58;3.97;;;2.90;;
59702;SDS011;45570;48.782;8.332;2022-08-21T09:59:47;4.28;;;2.35;;
59702;SDS011;45570;48.782;8.332;2022-08-21T10:02:21;3.53;;;2.40;;
59702;SDS011;45570;48.782;8.332;2022-08-21T10:04:53;5.13;;;2.85;;
59702;SDS011;45570;48.782;8.332;2022-08-21T10:07:24;3.75;;;2.60;;
59702;SDS011;45570;48.782;8.332;2022-08-21T10:09:58;6.63;;;2.13;;
59702;SDS011;45570;48.782;8.332;2022-08-21T10:12:31;5.43;;;2.75;;
59702;SDS011;45570;48.782;8.332;2022-08-21T10:15:12;5.50;;;2.40;;
59702;SDS011;45570;48.782;8.332;2022-08-21T10:17:50;4.68;;;2.28;;
59702;SDS011;45570;48.782;8.332;2022-08-21T10:20:26;3.85;;;2.40;;
59702;SDS011;45570;48.782;8.332;2022-08-21T10:23:03;5.75;;;2.42;;
59702;SDS011;45570;48.782;8.332;2022-08-21T10:25:47;2.72;;;2.30;;
59702;SDS011;45570;48.782;8.332;2022-08-21T10:28:42;4.15;;;2.08;;
59702;SDS011;45570;48.782;8.332;2022-08-21T10:31:26;5.32;;;2.20;;
59702;SDS011;45570;48.782;8.332;2022-08-21T10:34:05;4.50;;;2.10;;
59702;SDS011;45570;48.782;8.332;2022-08-21T10:36:44;4.50;;;2.58;;
59702;SDS011;45570;48.782;8.332;2022-08-21T10:39:18;7.75;;;3.58;;
59702;SDS011;45570;48.782;8.332;2022-08-21T10:42:12;4.18;;;2.25;;
59702;SDS011;45570;48.782;8.332;2022-08-21T10:44:57;6.65;;;2.75;;
59702;SDS011;45570;48.782;8.332;2022-08-21T10:47:40;40.80;;;6.07;;
59702;SDS011;45570;48.782;8.332;2022-08-21T10:50:17;5.32;;;2.38;;
59702;SDS011;45570;48.782;8.332;2022-08-21T10:53:03;6.25;;;2.38;;
59702;SDS011;45570;48.782;8.332;2022-08-21T10:55:42;3.90;;;1.90;;
59702;SDS011;45570;48.782;8.332;2022-08-21T10:58:17;4.10;;;2.30;;
59702;SDS011;45570;48.782;8.332;2022-08-21T11:00:52;3.75;;;2.25;;
59702;SDS011;45570;48.782;8.332;2022-08-21T11:03:29;3.95;;;2.00;;
59702;SDS011;45570;48.782;8.332;2022-08-21T11:06:03;2.38;;;1.88;;
59702;SDS011;45570;48.782;8.332;2022-08-21T11:08:38;6.50;;;2.70;;
59702;SDS011;45570;48.782;8.332;2022-08-21T11:11:10;3.38;;;1.88;;
59702;SDS011;45570;48.782;8.332;2022-08-21T11:13:49;3.28;;;2.22;;
59702;SDS011;45570;48.782;8.332;2022-08-21T11:16:23;4.30;;;2.08;;
59702;SDS011;45570;48.782;8.332;2022-08-21T11:19:04;4.18;;;2.60;;
59702;SDS011;45570;48.782;8.332;2022-08-21T11:21:39;6.97;;;2.45;;
59702;SDS011;45570;48.782;8.332;2022-08-21T11:24:17;9.57;;;2.05;;
59702;SDS011;45570;48.782;8.332;2022-08-21T11:26:54;5.53;;;2.08;;
59702;SDS011;45570;48.782;8.332;2022-08-21T11:29:29;4.60;;;1.90;;
59702;SDS011;45570;48.782;8.332;2022-08-21T11:32:03;5.38;;;2.60;;
59702;SDS011;45570;48.782;8.332;2022-08-21T11:34:57;2.40;;;1.90;;
59702;SDS011;45570;48.782;8.332;2022-08-21T11:37:40;6.28;;;1.83;;
59702;SDS011;45570;48.782;8.332;2022-08-21T11:40:24;3.55;;;1.95;;
59702;SDS011;45570;48.782;8.332;2022-08-21T11:43:01;3.53;;;2.00;;
59702;SDS011;45570;48.782;8.332;2022-08-21T11:45:42;4.25;;;1.80;;
59702;SDS011;45570;48.782;8.332;2022-08-21T11:48:17;1999.90;;;999.90;;
59702;SDS011;45570;48.782;8.332;2022-08-21T11:51:00;1999.90;;;999.90;;
59702;SDS011;45570;48.782;8.332;2022-08-21T11:53:36;1999.90;;;999.90;;
59702;SDS011;45570;48.782;8.332;2022-08-21T11:56:08;1999.90;;;999.90;;
59702;SDS011;45570;48.782;8.332;2022-08-21T11:58:40;1999.90;;;999.90;;
59702;SDS011;45570;48.782;8.332;2022-08-21T12:01:14;1999.90;;;999.90;;
59702;SDS011;45570;48.782;8.332;2022-08-21T12:03:51;1999.90;;;999.90;;
59702;SDS011;45570;48.782;8.332;2022-08-21T12:06:36;1999.90;;;999.90;;
59702;SDS011;45570;48.782;8.332;2022-08-21T12:12:03;1999.90;;;999.90;;
59702;SDS011;45570;48.782;8.332;2022-08-21T12:14:35;1999.90;;;999.90;;
59702;SDS011;45570;48.782;8.332;2022-08-21T12:17:07;1999.90;;;999.90;;
59702;SDS011;45570;48.782;8.332;2022-08-21T12:19:38;1999.90;;;999.90;;
59702;SDS011;45570;48.782;8.332;2022-08-21T12:22:10;1999.90;;;999.90;;
59702;SDS011;45570;48.782;8.332;2022-08-21T12:24:41;1999.90;;;999.90;;
59702;SDS011;45570;48.782;8.332;2022-08-21T12:27:13;1999.90;;;999.90;;
59702;SDS011;45570;48.782;8.332;2022-08-21T12:29:52;1999.90;;;999.90;;
59702;SDS011;45570;48.782;8.332;2022-08-21T12:32:25;546.33;;;291.30;;
59702;SDS011;45570;48.782;8.332;2022-08-21T12:34:57;97.05;;;91.10;;
59702;SDS011;45570;48.782;8.332;2022-08-21T12:37:34;0.63;;;0.63;;
59702;SDS011;45570;48.782;8.332;2022-08-21T12:40:10;37.28;;;34.42;;
59702;SDS011;45570;48.782;8.332;2022-08-21T12:42:46;94.75;;;53.00;;
59702;SDS011;45570;48.782;8.332;2022-08-21T12:45:27;1999.90;;;999.90;;
59702;SDS011;45570;48.782;8.332;2022-08-21T12:47:59;1999.90;;;999.90;;
59702;SDS011;45570;48.782;8.332;2022-08-21T12:50:35;93.50;;;86.43;;
59702;SDS011;45570;48.782;8.332;2022-08-21T12:53:19;32.38;;;29.67;;
59702;SDS011;45570;48.782;8.332;2022-08-21T12:55:54;49.00;;;45.45;;
59702;SDS011;45570;48.782;8.332;2022-08-21T12:58:28;32.95;;;30.65;;
59702;SDS011;45570;48.782;8.332;2022-08-21T13:01:12;7.07;;;6.78;;
59702;SDS011;45570;48.782;8.332;2022-08-21T13:03:45;8.65;;;8.25;;
59702;SDS011;45570;48.782;8.332;2022-08-21T13:06:32;3.15;;;3.05;;
59702;SDS011;45570;48.782;8.332;2022-08-21T13:09:07;0.77;;;0.77;;
59702;SDS011;45570;48.782;8.332;2022-08-21T13:11:39;0.30;;;0.30;;
59702;SDS011;45570;48.782;8.332;2022-08-21T13:14:10;0.40;;;0.40;;
59702;SDS011;45570;48.782;8.332;2022-08-21T13:16:53;0.40;;;0.40;;
59702;SDS011;45570;48.782;8.332;2022-08-21T13:19:23;0.30;;;0.30;;
59702;SDS011;45570;48.782;8.332;2022-08-21T13:21:52;0.30;;;0.30;;
59702;SDS011;45570;48.782;8.332;2022-08-21T13:24:23;0.30;;;0.30;;
59702;SDS011;45570;48.782;8.332;2022-08-21T13:27:22;0.30;;;0.30;;
59702;SDS011;45570;48.782;8.332;2022-08-21T13:30:07;0.40;;;0.40;;
59702;SDS011;45570;48.782;8.332;2022-08-21T13:32:40;0.40;;;0.40;;
59702;SDS011;45570;48.782;8.332;2022-08-21T13:35:11;0.70;;;0.70;;
59702;SDS011;45570;48.782;8.332;2022-08-21T13:37:43;0.50;;;0.50;;
59702;SDS011;45570;48.782;8.332;2022-08-21T13:40:16;0.30;;;0.30;;
59702;SDS011;45570;48.782;8.332;2022-08-21T13:42:48;5.72;;;5.43;;
59702;SDS011;45570;48.782;8.332;2022-08-21T13:45:18;9.43;;;8.98;;
59702;SDS011;45570;48.782;8.332;2022-08-21T13:47:52;6.22;;;5.95;;
59702;SDS011;45570;48.782;8.332;2022-08-21T13:50:23;2.00;;;2.00;;
59702;SDS011;45570;48.782;8.332;2022-08-21T13:52:55;9.40;;;9.00;;
59702;SDS011;45570;48.782;8.332;2022-08-21T13:55:36;10.23;;;9.73;;
59702;SDS011;45570;48.782;8.332;2022-08-21T13:58:08;9.23;;;8.82;;
59702;SDS011;45570;48.782;8.332;2022-08-21T14:00:43;7.30;;;7.00;;
59702;SDS011;45570;48.782;8.332;2022-08-21T14:03:23;4.65;;;4.45;;
59702;SDS011;45570;48.782;8.332;2022-08-21T14:05:59;1999.90;;;999.90;;
59702;SDS011;45570;48.782;8.332;2022-08-21T14:08:30;1999.90;;;999.90;;
59702;SDS011;45570;48.782;8.332;2022-08-21T14:11:04;1999.90;;;999.90;;
59702;SDS011;45570;48.782;8.332;2022-08-21T14:13:36;1999.90;;;999.90;;
59702;SDS011;45570;48.782;8.332;2022-08-21T14:16:11;1999.90;;;999.90;;
59702;SDS011;45570;48.782;8.332;2022-08-21T14:18:46;1999.90;;;999.90;;
59702;SDS011;45570;48.782;8.332;2022-08-21T14:21:23;1999.90;;;999.90;;
59702;SDS011;45570;48.782;8.332;2022-08-21T14:24:03;1999.90;;;999.90;;
59702;SDS011;45570;48.782;8.332;2022-08-21T14:26:36;1999.90;;;999.90;;
59702;SDS011;45570;48.782;8.332;2022-08-21T14:29:12;1999.90;;;999.90;;
59702;SDS011;45570;48.782;8.332;2022-08-21T14:31:47;1999.90;;;999.90;;
59702;SDS011;45570;48.782;8.332;2022-08-21T14:34:19;1999.90;;;999.90;;
59702;SDS011;45570;48.782;8.332;2022-08-21T14:36:49;1999.90;;;999.90;;
59702;SDS011;45570;48.782;8.332;2022-08-21T14:39:18;1999.90;;;999.90;;
59702;SDS011;45570;48.782;8.332;2022-08-21T14:41:48;1999.90;;;999.90;;
59702;SDS011;45570;48.782;8.332;2022-08-21T14:44:20;1999.90;;;999.90;;
59702;SDS011;45570;48.782;8.332;2022-08-21T14:46:48;1999.90;;;999.90;;
59702;SDS011;45570;48.782;8.332;2022-08-21T14:49:26;1999.90;;;999.90;;
59702;SDS011;45570;48.782;8.332;2022-08-21T14:51:57;1999.90;;;999.90;;
59702;SDS011;45570;48.782;8.332;2022-08-21T14:54:26;1999.90;;;999.90;;
59702;SDS011;45570;48.782;8.332;2022-08-21T14:57:00;1999.90;;;999.90;;
59702;SDS011;45570;48.782;8.332;2022-08-21T14:59:31;1999.90;;;999.90;;
59702;SDS011;45570;48.782;8.332;2022-08-21T15:02:00;1999.90;;;999.90;;
59702;SDS011;45570;48.782;8.332;2022-08-21T15:04:31;1999.90;;;999.90;;
59702;SDS011;45570;48.782;8.332;2022-08-21T15:07:00;1999.90;;;999.90;;
59702;SDS011;45570;48.782;8.332;2022-08-21T15:09:29;1999.90;;;999.90;;
59702;SDS011;45570;48.782;8.332;2022-08-21T15:12:00;1999.90;;;999.90;;
59702;SDS011;45570;48.782;8.332;2022-08-21T15:14:30;1999.90;;;999.90;;
59702;SDS011;45570;48.782;8.332;2022-08-21T15:17:02;1999.90;;;999.90;;
59702;SDS011;45570;48.782;8.332;2022-08-21T15:19:33;1999.90;;;999.90;;
59702;SDS011;45570;48.782;8.332;2022-08-21T15:22:02;1999.90;;;999.90;;
59702;SDS011;45570;48.782;8.332;2022-08-21T15:24:41;1999.90;;;999.90;;
59702;SDS011;45570;48.782;8.332;2022-08-21T15:27:11;1999.90;;;999.90;;
59702;SDS011;45570;48.782;8.332;2022-08-21T15:29:42;1999.90;;;999.90;;
59702;SDS011;45570;48.782;8.332;2022-08-21T15:32:18;1999.90;;;999.90;;
59702;SDS011;45570;48.782;8.332;2022-08-21T15:34:49;1999.90;;;999.90;;
59702;SDS011;45570;48.782;8.332;2022-08-21T15:37:19;1999.90;;;999.90;;
59702;SDS011;45570;48.782;8.332;2022-08-21T15:39:48;1999.90;;;999.90;;
59702;SDS011;45570;48.782;8.332;2022-08-21T15:42:21;1999.90;;;999.90;;
59702;SDS011;45570;48.782;8.332;2022-08-21T15:44:50;1999.90;;;999.90;;
59702;SDS011;45570;48.782;8.332;2022-08-21T15:47:22;1999.90;;;999.90;;
59702;SDS011;45570;48.782;8.332;2022-08-21T15:49:53;1999.90;;;999.90;;
59702;SDS011;45570;48.782;8.332;2022-08-21T15:52:23;1999.90;;;999.90;;
59702;SDS011;45570;48.782;8.332;2022-08-21T15:54:51;1999.90;;;999.90;;
59702;SDS011;45570;48.782;8.332;2022-08-21T15:57:22;1999.90;;;999.90;;
59702;SDS011;45570;48.782;8.332;2022-08-21T15:59:54;1999.90;;;999.90;;
59702;SDS011;45570;48.782;8.332;2022-08-21T16:02:27;1999.90;;;999.90;;
59702;SDS011;45570;48.782;8.332;2022-08-21T16:04:58;1999.90;;;999.90;;
59702;SDS011;45570;48.782;8.332;2022-08-21T16:07:27;1999.90;;;999.90;;
59702;SDS011;45570;48.782;8.332;2022-08-21T16:09:56;1999.90;;;999.90;;
59702;SDS011;45570;48.782;8.332;2022-08-21T16:12:27;1999.90;;;999.90;;
59702;SDS011;45570;48.782;8.332;2022-08-21T16:14:58;1999.90;;;999.90;;
59702;SDS011;45570;48.782;8.332;2022-08-21T16:17:29;1999.90;;;999.90;;
59702;SDS011;45570;48.782;8.332;2022-08-21T16:20:00;1999.90;;;999.90;;
59702;SDS011;45570;48.782;8.332;2022-08-21T16:22:31;1999.90;;;999.90;;
59702;SDS011;45570;48.782;8.332;2022-08-21T16:25:09;1999.90;;;999.90;;
59702;SDS011;45570;48.782;8.332;2022-08-21T16:27:40;1999.90;;;999.90;;
59702;SDS011;45570;48.782;8.332;2022-08-21T16:30:10;1999.90;;;999.90;;
59702;SDS011;45570;48.782;8.332;2022-08-21T16:32:42;1999.90;;;999.90;;
59702;SDS011;45570;48.782;8.332;2022-08-21T16:35:13;1999.90;;;999.90;;
59702;SDS011;45570;48.782;8.332;2022-08-21T16:37:43;1999.90;;;999.90;;
59702;SDS011;45570;48.782;8.332;2022-08-21T16:40:18;1999.90;;;999.90;;
59702;SDS011;45570;48.782;8.332;2022-08-21T16:42:50;1999.90;;;999.90;;
59702;SDS011;45570;48.782;8.332;2022-08-21T16:45:19;1999.90;;;999.90;;
59702;SDS011;45570;48.782;8.332;2022-08-21T16:47:48;1999.90;;;999.90;;
59702;SDS011;45570;48.782;8.332;2022-08-21T16:50:19;1999.90;;;999.90;;
59702;SDS011;45570;48.782;8.332;2022-08-21T16:52:49;1999.90;;;999.90;;
59702;SDS011;45570;48.782;8.332;2022-08-21T16:55:19;1999.90;;;999.90;;
59702;SDS011;45570;48.782;8.332;2022-08-21T16:57:50;1999.90;;;999.90;;
59702;SDS011;45570;48.782;8.332;2022-08-21T17:00:20;1999.90;;;999.90;;
59702;SDS011;45570;48.782;8.332;2022-08-21T17:02:50;1999.90;;;999.90;;
59702;SDS011;45570;48.782;8.332;2022-08-21T17:05:21;1999.90;;;999.90;;
59702;SDS011;45570;48.782;8.332;2022-08-21T17:07:50;1999.90;;;999.90;;
59702;SDS011;45570;48.782;8.332;2022-08-21T17:10:20;1999.90;;;999.90;;
59702;SDS011;45570;48.782;8.332;2022-08-21T17:12:52;1999.90;;;999.90;;
59702;SDS011;45570;48.782;8.332;2022-08-21T17:15:24;1999.90;;;999.90;;
59702;SDS011;45570;48.782;8.332;2022-08-21T17:18:07;1999.90;;;999.90;;
59702;SDS011;45570;48.782;8.332;2022-08-21T17:20:38;1999.90;;;999.90;;
59702;SDS011;45570;48.782;8.332;2022-08-21T17:23:07;1999.90;;;999.90;;
59702;SDS011;45570;48.782;8.332;2022-08-21T17:25:36;1999.90;;;999.90;;
59702;SDS011;45570;48.782;8.332;2022-08-21T17:28:08;581.40;;;38.20;;
59702;SDS011;45570;48.782;8.332;2022-08-21T17:30:41;3.58;;;1.88;;
59702;SDS011;45570;48.782;8.332;2022-08-21T17:33:11;6.97;;;2.33;;
59702;SDS011;45570;48.782;8.332;2022-08-21T17:35:42;4.32;;;1.95;;
59702;SDS011;45570;48.782;8.332;2022-08-21T17:38:11;3.20;;;1.83;;
59702;SDS011;45570;48.782;8.332;2022-08-21T17:40:40;3.25;;;1.95;;
59702;SDS011;45570;48.782;8.332;2022-08-21T17:43:11;4.95;;;2.30;;
59702;SDS011;45570;48.782;8.332;2022-08-21T17:45:41;2.88;;;1.60;;
59702;SDS011;45570;48.782;8.332;2022-08-21T17:48:11;5.47;;;2.25;;
59702;SDS011;45570;48.782;8.332;2022-08-21T17:50:40;5.32;;;2.20;;
59702;SDS011;45570;48.782;8.332;2022-08-21T17:53:09;3.58;;;2.03;;
59702;SDS011;45570;48.782;8.332;2022-08-21T17:55:38;3.60;;;1.70;;
59702;SDS011;45570;48.782;8.332;2022-08-21T17:58:07;2.25;;;1.60;;
59702;SDS011;45570;48.782;8.332;2022-08-21T18:00:38;75.43;;;5.03;;
59702;SDS011;45570;48.782;8.332;2022-08-21T18:03:08;2.47;;;2.03;;
59702;SDS011;45570;48.782;8.332;2022-08-21T18:05:40;506.23;;;39.45;;
59702;SDS011;45570;48.782;8.332;2022-08-21T18:08:09;3.63;;;1.88;;
59702;SDS011;45570;48.782;8.332;2022-08-21T18:10:39;3.95;;;2.08;;
59702;SDS011;45570;48.782;8.332;2022-08-21T18:13:10;4.18;;;1.83;;
59702;SDS011;45570;48.782;8.332;2022-08-21T18:15:43;2.67;;;2.00;;
59702;SDS011;45570;48.782;8.332;2022-08-21T18:18:16;192.57;;;7.30;;
59702;SDS011;45570;48.782;8.332;2022-08-21T18:20:45;5.22;;;2.53;;
59702;SDS011;45570;48.782;8.332;2022-08-21T18:23:13;3.17;;;1.98;;
59702;SDS011;45570;48.782;8.332;2022-08-21T18:25:43;2.85;;;2.10;;
59702;SDS011;45570;48.782;8.332;2022-08-21T18:28:15;3.40;;;2.17;;
59702;SDS011;45570;48.782;8.332;2022-08-21T18:30:47;3.97;;;2.28;;
59702;SDS011;45570;48.782;8.332;2022-08-21T18:33:16;4.75;;;1.98;;
59702;SDS011;45570;48.782;8.332;2022-08-21T18:35:46;5.15;;;2.30;;
59702;SDS011;45570;48.782;8.332;2022-08-21T18:38:15;3.13;;;2.17;;
59702;SDS011;45570;48.782;8.332;2022-08-21T18:40:47;2.42;;;2.13;;
59702;SDS011;45570;48.782;8.332;2022-08-21T18:43:21;4.57;;;2.08;;
59702;SDS011;45570;48.782;8.332;2022-08-21T18:45:52;2.70;;;2.17;;
59702;SDS011;45570;48.782;8.332;2022-08-21T18:48:21;3.47;;;2.30;;
59702;SDS011;45570;48.782;8.332;2022-08-21T18:51:10;4.47;;;2.30;;
59702;SDS011;45570;48.782;8.332;2022-08-21T18:53:39;2.92;;;2.05;;
59702;SDS011;45570;48.782;8.332;2022-08-21T18:56:12;4.30;;;2.22;;
59702;SDS011;45570;48.782;8.332;2022-08-21T18:58:41;4.13;;;2.22;;
59702;SDS011;45570;48.782;8.332;2022-08-21T19:01:13;6.65;;;2.60;;
59702;SDS011;45570;48.782;8.332;2022-08-21T19:03:43;4.60;;;2.45;;
59702;SDS011;45570;48.782;8.332;2022-08-21T19:06:15;129.48;;;10.80;;
59702;SDS011;45570;48.782;8.332;2022-08-21T19:08:44;174.95;;;15.68;;
59702;SDS011;45570;48.782;8.332;2022-08-21T19:11:13;4.95;;;2.58;;
59702;SDS011;45570;48.782;8.332;2022-08-21T19:13:49;2.85;;;2.45;;
59702;SDS011;45570;48.782;8.332;2022-08-21T19:16:21;4.32;;;3.00;;
59702;SDS011;45570;48.782;8.332;2022-08-21T19:18:50;6.32;;;2.40;;
59702;SDS011;45570;48.782;8.332;2022-08-21T19:21:23;4.55;;;3.08;;
59702;SDS011;45570;48.782;8.332;2022-08-21T19:23:52;3.28;;;2.78;;
59702;SDS011;45570;48.782;8.332;2022-08-21T19:26:24;8.38;;;2.80;;
59702;SDS011;45570;48.782;8.332;2022-08-21T19:28:55;4.78;;;2.22;;
59702;SDS011;45570;48.782;8.332;2022-08-21T19:31:30;3.45;;;2.08;;
59702;SDS011;45570;48.782;8.332;2022-08-21T19:34:02;3.97;;;2.60;;
59702;SDS011;45570;48.782;8.332;2022-08-21T19:36:33;73.47;;;7.15;;
59702;SDS011;45570;48.782;8.332;2022-08-21T19:41:08;2.72;;;2.40;;
59702;SDS011;45570;48.782;8.332;2022-08-21T19:43:39;3.38;;;2.45;;
59702;SDS011;45570;48.782;8.332;2022-08-21T19:46:11;4.65;;;2.85;;
59702;SDS011;45570;48.782;8.332;2022-08-21T19:48:42;4.78;;;2.65;;
59702;SDS011;45570;48.782;8.332;2022-08-21T19:51:12;6.20;;;2.30;;
59702;SDS011;45570;48.782;8.332;2022-08-21T19:53:41;3.70;;;2.30;;
59702;SDS011;45570;48.782;8.332;2022-08-21T19:56:13;5.47;;;2.50;;
59702;SDS011;45570;48.782;8.332;2022-08-21T20:01:16;441.55;;;107.25;;
59702;SDS011;45570;48.782;8.332;2022-08-21T20:03:47;5.50;;;2.40;;
59702;SDS011;45570;48.782;8.332;2022-08-21T20:06:19;4.10;;;2.50;;
59702;SDS011;45570;48.782;8.332;2022-08-21T20:08:50;8.30;;;2.50;;
59702;SDS011;45570;48.782;8.332;2022-08-21T20:11:24;5.10;;;2.50;;
59702;SDS011;45570;48.782;8.332;2022-08-21T20:14:16;14.32;;;2.63;;
59702;SDS011;45570;48.782;8.332;2022-08-21T20:16:47;5.55;;;2.53;;
59702;SDS011;45570;48.782;8.332;2022-08-21T20:19:18;5.60;;;2.90;;
59702;SDS011;45570;48.782;8.332;2022-08-21T20:21:47;3.53;;;2.50;;
59702;SDS011;45570;48.782;8.332;2022-08-21T20:24:16;3.42;;;2.33;;
